Time;durP1;ratioP1;P1;durP2;ratioP2;P2;SDS_P1;SDS_P2;PMS_P1;PMS_P2;Temp;Humidity;BMP_temperature;BMP_pressure;BME280_temperature;BME280_humidity;BME280_pressure;Samples;Min_cycle;Max_cycle;Signal;HPM_P1;HPM_P2
2023/06/09 00:02:11;;;;;;;6.45;5.85;;;20.60;52.50;;;;;;5022894;28;20416;-50
2023/06/09 00:04:38;;;;;;;6.95;5.60;;;20.50;52.60;;;;;;5027521;28;20457;-49
2023/06/09 00:07:06;;;;;;;6.85;6.03;;;20.40;52.60;;;;;;5029626;28;20099;-46
2023/06/09 00:09:33;;;;;;;7.70;7.07;;;20.40;52.80;;;;;;5025608;28;20443;-45
2023/06/09 00:12:02;;;;;;;6.95;6.45;;;20.40;53.10;;;;;;5020631;28;20129;-46
2023/06/09 00:14:31;;;;;;;6.78;6.22;;;20.30;53.20;;;;;;5028950;28;20127;-47
2023/06/09 00:17:01;;;;;;;7.10;6.40;;;20.30;53.40;;;;;;5029571;28;20162;-46
2023/06/09 00:19:32;;;;;;;6.85;6.25;;;20.30;53.30;;;;;;5023728;28;20143;-45
2023/06/09 00:22:08;;;;;;;6.90;6.20;;;20.20;53.20;;;;;;5028717;28;20045;-49
2023/06/09 00:24:35;;;;;;;7.18;6.57;;;20.20;53.30;;;;;;5021331;28;20116;-46
2023/06/09 00:27:10;;;;;;;7.47;6.78;;;20.20;53.60;;;;;;5028470;28;20053;-45
2023/06/09 00:29:37;;;;;;;6.72;6.13;;;20.10;54.30;;;;;;5014496;28;20041;-45
2023/06/09 00:32:04;;;;;;;7.00;6.35;;;20.10;53.70;;;;;;5013146;28;20084;-44
2023/06/09 00:34:33;;;;;;;7.50;6.90;;;20.10;54.00;;;;;;5005576;28;20050;-45
2023/06/09 00:37:04;;;;;;;7.50;6.80;;;20.00;53.90;;;;;;5032782;28;20045;-46
2023/06/09 00:39:31;;;;;;;7.47;6.88;;;20.00;54.40;;;;;;5014966;28;20053;-47
2023/06/09 00:41:58;;;;;;;7.82;7.18;;;20.00;54.20;;;;;;5026268;28;20541;-45
2023/06/09 00:44:25;;;;;;;6.78;6.28;;;19.90;54.00;;;;;;5031040;28;20160;-47
2023/06/09 00:46:56;;;;;;;6.95;6.25;;;19.90;54.00;;;;;;5032722;28;20041;-45
2023/06/09 00:49:23;;;;;;;6.70;6.20;;;19.90;54.10;;;;;;5032095;28;20061;-46
2023/06/09 00:51:50;;;;;;;7.43;6.82;;;19.90;54.10;;;;;;5027298;28;20120;-45
2023/06/09 00:54:20;;;;;;;7.40;6.70;;;19.80;54.00;;;;;;5019878;28;20487;-45
2023/06/09 00:56:46;;;;;;;8.20;7.43;;;19.80;54.30;;;;;;5032234;28;20091;-45
2023/06/09 00:59:15;;;;;;;7.43;6.82;;;19.80;54.70;;;;;;5014392;28;20057;-46
2023/06/09 01:01:46;;;;;;;7.32;6.68;;;19.80;54.90;;;;;;5011487;28;20069;-49
2023/06/09 01:04:13;;;;;;;7.37;6.77;;;19.70;54.70;;;;;;5006933;28;20054;-46
2023/06/09 01:07:16;;;;;;;6.45;5.95;;;19.70;54.50;;;;;;5014362;28;20306;-44
2023/06/09 01:10:02;;;;;;;7.40;6.25;;;19.70;54.80;;;;;;5008078;28;20053;-46
2023/06/09 01:13:01;;;;;;;7.03;6.43;;;19.70;54.50;;;;;;5022720;28;20060;-46
2023/06/09 01:15:45;;;;;;;7.45;6.78;;;19.70;54.30;;;;;;4990390;28;20284;-44
2023/06/09 01:18:17;;;;;;;7.35;6.75;;;19.60;54.70;;;;;;5011582;28;20041;-49
2023/06/09 01:20:56;;;;;;;7.70;7.00;;;19.50;54.40;;;;;;5006749;28;20568;-46
2023/06/09 01:23:58;;;;;;;7.95;7.20;;;19.50;55.70;;;;;;5011829;28;20454;-46
2023/06/09 01:26:26;;;;;;;7.13;6.53;;;19.50;55.80;;;;;;5022357;28;20050;-46
2023/06/09 01:28:58;;;;;;;7.28;6.65;;;19.50;55.00;;;;;;5024235;28;20045;-45
2023/06/09 01:31:27;;;;;;;7.47;6.82;;;19.40;55.00;;;;;;5013887;28;20068;-46
2023/06/09 01:33:59;;;;;;;8.00;7.28;;;19.40;55.20;;;;;;5023122;28;20099;-48
2023/06/09 01:36:33;;;;;;;7.50;6.90;;;19.40;55.40;;;;;;5017575;28;20050;-45
2023/06/09 01:39:06;;;;;;;7.30;6.60;;;19.30;55.10;;;;;;5013238;28;20044;-45
2023/06/09 01:41:32;;;;;;;7.03;6.43;;;19.30;55.00;;;;;;5031368;28;20440;-46
2023/06/09 01:44:01;;;;;;;8.43;7.72;;;19.30;55.00;;;;;;5023603;28;20137;-47
2023/06/09 01:46:28;;;;;;;7.75;7.15;;;19.30;55.30;;;;;;5013443;28;20054;-45
2023/06/09 01:49:15;;;;;;;8.02;7.22;;;19.20;55.20;;;;;;5013848;28;20041;-45
2023/06/09 01:51:58;;;;;;;7.40;6.80;;;19.20;55.60;;;;;;5023006;28;20061;-47
2023/06/09 01:54:40;;;;;;;8.10;7.40;;;19.20;55.20;;;;;;5007340;28;20050;-46
2023/06/09 01:57:30;;;;;;;8.55;7.85;;;19.20;55.80;;;;;;5013821;28;20049;-48
2023/06/09 02:00:01;;;;;;;7.25;6.68;;;19.10;56.30;;;;;;4969577;28;20076;-48
2023/06/09 02:02:32;;;;;;;8.48;7.78;;;19.10;55.70;;;;;;5029201;28;20553;-44
2023/06/09 02:05:04;;;;;;;8.45;7.60;;;19.10;55.60;;;;;;5012232;28;20045;-45
2023/06/09 02:07:33;;;;;;;8.30;7.50;;;19.10;55.60;;;;;;4997797;28;20132;-45
2023/06/09 02:10:10;;;;;;;7.78;6.97;;;19.00;55.60;;;;;;5013070;28;20060;-45
2023/06/09 02:12:37;;;;;;;8.15;7.38;;;19.00;55.60;;;;;;5004806;28;20076;-49
2023/06/09 02:15:06;;;;;;;7.53;6.93;;;19.00;55.60;;;;;;5030336;28;20041;-49
2023/06/09 02:17:33;;;;;;;9.00;8.20;;;19.00;55.60;;;;;;5030993;28;20037;-49
2023/06/09 02:20:03;;;;;;;9.07;8.27;;;19.00;55.80;;;;;;5011180;28;20034;-46
2023/06/09 02:22:36;;;;;;;7.63;6.93;;;18.90;55.80;;;;;;5006093;28;20132;-46
2023/06/09 02:25:08;;;;;;;8.05;7.45;;;18.90;56.00;;;;;;5006828;28;20045;-45
2023/06/09 02:27:35;;;;;;;7.65;6.95;;;18.90;55.80;;;;;;5006503;28;20048;-45
2023/06/09 02:30:02;;;;;;;8.45;7.65;;;18.90;55.80;;;;;;5012963;28;20069;-49
2023/06/09 02:32:29;;;;;;;8.75;7.95;;;18.90;56.00;;;;;;5012603;28;20073;-49
2023/06/09 02:35:02;;;;;;;8.82;8.02;;;18.80;55.90;;;;;;5006843;28;20080;-50
2023/06/09 02:37:32;;;;;;;8.18;7.47;;;18.80;56.00;;;;;;5009562;28;20470;-45
2023/06/09 02:39:59;;;;;;;8.45;7.75;;;18.80;56.10;;;;;;5012941;28;20080;-48
2023/06/09 02:42:26;;;;;;;8.38;7.68;;;18.80;56.10;;;;;;5024800;28;20025;-45
2023/06/09 02:44:53;;;;;;;9.38;8.57;;;18.70;56.10;;;;;;5012119;28;20049;-49
2023/06/09 02:47:33;;;;;;;9.05;8.25;;;18.70;56.30;;;;;;5011477;28;20422;-46
2023/06/09 02:50:00;;;;;;;8.52;7.68;;;18.70;56.40;;;;;;5005309;28;20044;-45
2023/06/09 02:52:31;;;;;;;9.02;8.23;;;18.70;56.40;;;;;;5003219;28;20047;-46
2023/06/09 02:55:07;;;;;;;8.27;7.57;;;18.60;56.30;;;;;;5007409;28;20069;-48
2023/06/09 02:57:38;;;;;;;8.98;8.07;;;18.60;56.10;;;;;;5012981;28;20046;-47
2023/06/09 03:00:08;;;;;;;9.40;8.60;;;18.60;56.20;;;;;;5013221;28;20038;-49
2023/06/09 03:02:37;;;;;;;8.50;7.70;;;18.60;56.50;;;;;;5010853;28;20057;-45
2023/06/09 03:05:07;;;;;;;9.55;8.35;;;18.50;56.40;;;;;;5012890;28;20038;-48
2023/06/09 03:07:37;;;;;;;9.10;8.40;;;18.50;56.40;;;;;;5013034;28;20045;-47
2023/06/09 03:10:05;;;;;;;9.55;8.65;;;18.50;56.60;;;;;;5011480;28;20068;-49
2023/06/09 03:12:38;;;;;;;9.93;8.98;;;18.50;56.60;;;;;;5008794;28;20423;-46
2023/06/09 03:15:15;;;;;;;9.65;8.70;;;18.40;56.50;;;;;;5012480;28;20045;-48
2023/06/09 03:17:47;;;;;;;9.52;8.73;;;18.40;56.60;;;;;;5012454;28;20176;-46
2023/06/09 03:20:20;;;;;;;10.10;9.30;;;18.40;56.60;;;;;;5015273;28;20403;-49
2023/06/09 03:22:48;;;;;;;9.93;9.02;;;18.40;56.80;;;;;;5011326;28;20046;-45
2023/06/09 03:25:16;;;;;;;9.25;8.45;;;18.40;56.80;;;;;;5007007;28;20036;-44
2023/06/09 03:27:42;;;;;;;9.20;8.40;;;18.30;56.60;;;;;;5011140;28;20091;-46
2023/06/09 03:30:10;;;;;;;9.25;8.45;;;18.30;56.50;;;;;;5012649;28;20037;-45
2023/06/09 03:32:40;;;;;;;8.77;8.07;;;18.30;56.40;;;;;;5012172;28;20037;-45
2023/06/09 03:35:08;;;;;;;9.43;8.52;;;18.20;56.40;;;;;;4999323;28;20111;-46
2023/06/09 03:37:35;;;;;;;9.65;8.68;;;18.20;56.50;;;;;;5008481;28;20041;-45
2023/06/09 03:40:05;;;;;;;9.80;9.00;;;18.20;56.60;;;;;;5012691;28;20037;-44
2023/06/09 03:42:32;;;;;;;10.55;9.52;;;18.20;56.60;;;;;;5010927;28;20084;-46
2023/06/09 03:45:02;;;;;;;9.57;8.68;;;18.10;56.70;;;;;;5023314;28;20041;-44
2023/06/09 03:47:32;;;;;;;9.75;8.85;;;18.10;56.90;;;;;;5011114;28;20086;-46
2023/06/09 03:50:02;;;;;;;10.55;8.95;;;18.10;57.10;;;;;;5012875;28;20030;-44
2023/06/09 03:52:32;;;;;;;10.85;9.32;;;18.10;57.20;;;;;;4990241;28;20052;-47
2023/06/09 03:55:02;;;;;;;10.18;9.18;;;18.10;57.40;;;;;;5009045;28;20038;-46
2023/06/09 03:57:32;;;;;;;10.05;9.15;;;18.10;57.40;;;;;;5012197;28;20103;-45
2023/06/09 04:00:03;;;;;;;9.95;8.95;;;18.10;57.40;;;;;;5030157;28;20044;-45
2023/06/09 04:02:31;;;;;;;9.98;9.07;;;18.10;57.30;;;;;;5026550;28;20057;-46
2023/06/09 04:05:02;;;;;;;10.20;9.25;;;18.10;57.40;;;;;;5015955;28;20038;-44
2023/06/09 04:07:35;;;;;;;10.38;9.38;;;18.00;57.60;;;;;;5016069;28;20512;-47
2023/06/09 04:10:10;;;;;;;9.70;8.88;;;18.00;57.60;;;;;;5013596;28;20529;-46
2023/06/09 04:12:38;;;;;;;9.23;8.32;;;18.10;57.80;;;;;;5014746;28;20044;-47
2023/06/09 04:15:06;;;;;;;9.93;8.65;;;18.00;57.90;;;;;;5015753;28;20052;-45
2023/06/09 04:17:37;;;;;;;9.65;8.85;;;18.00;58.10;;;;;;5016128;28;20042;-45
2023/06/09 04:20:10;;;;;;;10.35;9.25;;;18.10;58.50;;;;;;5025572;28;20077;-46
2023/06/09 04:22:47;;;;;;;9.50;8.48;;;18.10;58.30;;;;;;5000345;28;20461;-45
2023/06/09 04:25:18;;;;;;;9.88;8.98;;;18.10;58.70;;;;;;5009303;28;20052;-44
2023/06/09 04:27:48;;;;;;;10.23;9.35;;;18.10;58.70;;;;;;5011376;28;20045;-45
2023/06/09 04:30:17;;;;;;;9.63;8.73;;;18.10;58.80;;;;;;5015402;28;20501;-44
2023/06/09 04:32:50;;;;;;;10.23;9.13;;;18.10;59.00;;;;;;4999326;28;20052;-45
2023/06/09 04:35:23;;;;;;;9.85;8.98;;;18.10;59.20;;;;;;5013607;28;20049;-46
2023/06/09 04:37:51;;;;;;;9.68;8.77;;;18.20;59.80;;;;;;5014680;28;20049;-45
2023/06/09 04:40:23;;;;;;;9.38;8.48;;;18.20;59.70;;;;;;5015612;28;20053;-44
2023/06/09 04:42:55;;;;;;;10.70;9.68;;;18.30;60.10;;;;;;5014834;28;20037;-44
2023/06/09 04:45:34;;;;;;;11.00;9.90;;;18.30;60.10;;;;;;5001144;28;20080;-44
2023/06/09 04:48:15;;;;;;;10.13;9.23;;;18.40;60.30;;;;;;5023378;28;20045;-47
2023/06/09 04:50:45;;;;;;;11.00;10.00;;;18.40;60.30;;;;;;5031324;28;20048;-48
2023/06/09 04:53:20;;;;;;;10.48;9.48;;;18.40;60.30;;;;;;5011987;28;20049;-49
2023/06/09 04:55:56;;;;;;;10.25;9.20;;;18.50;60.50;;;;;;5009533;28;20128;-47
2023/06/09 04:58:28;;;;;;;9.88;8.98;;;18.50;60.70;;;;;;5015698;28;20051;-46
2023/06/09 05:00:58;;;;;;;10.45;9.55;;;18.60;60.90;;;;;;5013535;28;20095;-45
2023/06/09 05:03:25;;;;;;;12.23;10.30;;;18.60;61.00;;;;;;5009284;28;20548;-46
2023/06/09 05:05:53;;;;;;;11.05;9.95;;;18.70;61.30;;;;;;5031794;28;20570;-47
2023/06/09 05:08:28;;;;;;;11.05;10.02;;;18.70;61.40;;;;;;5015415;28;20037;-46
2023/06/09 05:11:02;;;;;;;9.95;9.05;;;18.80;61.60;;;;;;5011616;28;20077;-45
2023/06/09 05:13:34;;;;;;;10.82;9.77;;;18.80;61.70;;;;;;5011396;28;20061;-45
2023/06/09 05:16:01;;;;;;;11.38;10.27;;;18.90;61.90;;;;;;5031809;28;20253;-44
2023/06/09 05:18:32;;;;;;;11.20;9.82;;;19.00;62.00;;;;;;5031832;28;20123;-46
2023/06/09 05:21:01;;;;;;;10.80;9.65;;;19.00;62.20;;;;;;5024779;28;20045;-46
2023/06/09 05:23:33;;;;;;;11.85;10.57;;;19.10;62.30;;;;;;5011774;28;20069;-44
2023/06/09 05:26:04;;;;;;;11.93;10.73;;;19.20;62.60;;;;;;5012115;28;20129;-45
2023/06/09 05:28:36;;;;;;;12.48;11.13;;;19.20;62.70;;;;;;5011942;28;20124;-46
2023/06/09 05:31:06;;;;;;;12.27;11.18;;;19.30;62.90;;;;;;5010074;28;20041;-46
2023/06/09 05:33:36;;;;;;;13.02;11.70;;;19.40;63.10;;;;;;5005764;28;20132;-46
2023/06/09 05:36:08;;;;;;;13.30;11.90;;;19.40;63.10;;;;;;5006483;28;20128;-46
2023/06/09 05:38:41;;;;;;;12.48;10.98;;;19.50;63.50;;;;;;5007380;28;20569;-50
2023/06/09 05:41:11;;;;;;;12.27;10.98;;;19.60;63.10;;;;;;5032037;28;20068;-46
2023/06/09 05:43:41;;;;;;;12.57;11.38;;;19.60;63.20;;;;;;5032265;28;20042;-50
2023/06/09 05:46:10;;;;;;;13.48;11.70;;;19.70;63.40;;;;;;5008374;28;20136;-49
2023/06/09 05:48:42;;;;;;;12.65;11.55;;;19.80;63.50;;;;;;5030115;28;20038;-48
2023/06/09 05:51:08;;;;;;;12.55;11.35;;;19.90;63.50;;;;;;5013930;28;20129;-47
2023/06/09 05:53:35;;;;;;;12.77;11.68;;;19.90;63.30;;;;;;5025108;28;20041;-46
2023/06/09 05:56:07;;;;;;;12.25;11.10;;;20.00;63.10;;;;;;5024827;28;20099;-49
2023/06/09 05:58:37;;;;;;;11.80;10.70;;;20.10;62.90;;;;;;5032133;28;20124;-46
2023/06/09 06:01:04;;;;;;;12.43;11.32;;;20.10;62.80;;;;;;5014138;28;20075;-45
2023/06/09 06:03:39;;;;;;;11.82;10.70;;;20.20;62.50;;;;;;5029692;28;20046;-47
2023/06/09 06:06:06;;;;;;;12.57;11.40;;;20.30;62.40;;;;;;5027228;28;20581;-46
2023/06/09 06:08:38;;;;;;;12.68;11.18;;;20.40;62.50;;;;;;5031629;28;20040;-47
2023/06/09 06:11:07;;;;;;;12.40;11.23;;;20.50;62.70;;;;;;5031661;28;20061;-46
2023/06/09 06:13:38;;;;;;;11.90;10.80;;;20.60;62.40;;;;;;5027000;28;20056;-47
2023/06/09 06:16:05;;;;;;;12.15;10.95;;;20.70;62.00;;;;;;5029829;28;20528;-47
2023/06/09 06:18:34;;;;;;;11.32;10.00;;;20.70;61.70;;;;;;5031604;28;20045;-47
2023/06/09 06:21:03;;;;;;;12.55;10.80;;;20.80;61.70;;;;;;5026841;28;20099;-47
2023/06/09 06:23:36;;;;;;;12.00;10.80;;;20.80;61.60;;;;;;5007152;28;20124;-50
2023/06/09 06:26:05;;;;;;;;;;;20.90;61.50;;;;;;5020213;28;20088;-49
2023/06/09 06:28:32;;;;;;;10.35;9.35;;;21.00;61.10;;;;;;5028390;28;19925;-46
2023/06/09 06:30:59;;;;;;;11.55;10.48;;;21.10;60.60;;;;;;5024225;28;20048;-48
2023/06/09 06:33:29;;;;;;;10.48;9.57;;;21.10;60.50;;;;;;5030446;28;20517;-46
2023/06/09 06:35:58;;;;;;;11.10;10.05;;;21.10;60.70;;;;;;5030720;28;20042;-45
2023/06/09 06:38:29;;;;;;;10.02;9.13;;;21.20;60.60;;;;;;5030253;28;20095;-47
2023/06/09 06:41:03;;;;;;;10.65;9.70;;;21.30;60.40;;;;;;5026666;28;20081;-48
2023/06/09 06:43:32;;;;;;;11.43;10.27;;;21.30;60.60;;;;;;5031284;28;20029;-47
2023/06/09 06:46:06;;;;;;;10.63;9.57;;;21.40;60.40;;;;;;5012982;28;20110;-47
2023/06/09 06:48:33;;;;;;;10.73;9.52;;;21.50;60.10;;;;;;5022118;28;20142;-48
2023/06/09 06:51:04;;;;;;;11.82;10.63;;;21.50;60.20;;;;;;5029295;28;20042;-50
2023/06/09 06:53:33;;;;;;;9.47;8.50;;;21.60;60.10;;;;;;5028659;28;20048;-46
2023/06/09 06:56:02;;;;;;;10.43;9.43;;;21.70;59.70;;;;;;5026667;28;20037;-49
2023/06/09 06:58:30;;;;;;;10.32;9.27;;;21.70;59.60;;;;;;5013679;28;20045;-46
2023/06/09 07:00:57;;;;;;;10.13;9.15;;;21.80;59.50;;;;;;5030858;28;20160;-46
2023/06/09 07:03:29;;;;;;;9.55;8.75;;;21.80;59.80;;;;;;5018922;28;20084;-50
2023/06/09 07:05:56;;;;;;;10.90;9.13;;;21.90;59.60;;;;;;5030477;28;20108;-50
2023/06/09 07:08:24;;;;;;;9.13;8.27;;;22.00;59.50;;;;;;5031121;28;20099;-50
2023/06/09 07:10:53;;;;;;;9.13;8.23;;;22.00;59.20;;;;;;5024320;28;20037;-46
2023/06/09 07:13:23;;;;;;;11.43;8.40;;;22.10;59.40;;;;;;5019385;28;20462;-46
2023/06/09 07:15:49;;;;;;;8.32;7.63;;;22.20;59.10;;;;;;5030257;28;20132;-49
2023/06/09 07:18:19;;;;;;;9.30;8.40;;;22.20;58.50;;;;;;5030679;28;20041;-47
2023/06/09 07:20:49;;;;;;;8.20;7.50;;;22.30;58.60;;;;;;5023327;28;20049;-47
2023/06/09 07:23:22;;;;;;;8.60;7.90;;;22.40;58.60;;;;;;5024385;28;20037;-47
2023/06/09 07:25:58;;;;;;;8.05;7.25;;;22.40;58.20;;;;;;5019770;28;20038;-47
2023/06/09 07:28:28;;;;;;;8.10;7.40;;;22.50;58.10;;;;;;5026494;28;20041;-46
2023/06/09 07:30:57;;;;;;;6.97;6.38;;;22.50;57.70;;;;;;5030329;28;20046;-46
2023/06/09 07:33:32;;;;;;;6.93;6.32;;;22.70;57.60;;;;;;5026851;28;20111;-47
2023/06/09 07:35:59;;;;;;;6.90;6.35;;;22.70;57.50;;;;;;5018345;28;20044;-50
2023/06/09 07:38:29;;;;;;;6.18;5.57;;;22.70;56.60;;;;;;5017427;28;20045;-46
2023/06/09 07:40:56;;;;;;;6.72;5.55;;;22.80;56.20;;;;;;5029573;28;20103;-47
2023/06/09 07:43:28;;;;;;;6.07;5.57;;;22.90;56.80;;;;;;5027307;28;20524;-47
2023/06/09 07:45:55;;;;;;;6.07;5.57;;;23.00;56.10;;;;;;5034199;28;20041;-46
2023/06/09 07:48:22;;;;;;;5.93;5.30;;;23.10;56.10;;;;;;5034791;28;20046;-49
2023/06/09 07:50:52;;;;;;;7.00;6.30;;;23.20;55.30;;;;;;5022707;28;20073;-47
2023/06/09 07:53:30;;;;;;;5.68;5.15;;;23.20;55.00;;;;;;5027939;28;20587;-49
2023/06/09 07:55:58;;;;;;;7.05;6.45;;;23.30;54.70;;;;;;5013191;28;20063;-46
2023/06/09 07:58:25;;;;;;;6.57;5.97;;;23.40;54.30;;;;;;5034356;28;20041;-48
2023/06/09 08:00:56;;;;;;;6.43;5.88;;;23.40;54.10;;;;;;5034079;28;20070;-48
2023/06/09 08:03:23;;;;;;;6.85;6.18;;;23.50;54.00;;;;;;5029779;28;20044;-47
2023/06/09 08:05:52;;;;;;;6.15;5.75;;;23.50;54.20;;;;;;5033099;28;20473;-47
2023/06/09 08:08:19;;;;;;;7.05;5.90;;;23.70;54.40;;;;;;5034092;28;20043;-48
2023/06/09 08:10:51;;;;;;;;;;;23.70;53.60;;;;;;5024198;28;20469;-46
2023/06/09 08:13:18;;;;;;;6.65;6.05;;;23.80;53.80;;;;;;5030700;28;19921;-47
2023/06/09 08:15:45;;;;;;;6.18;5.68;;;23.80;53.30;;;;;;5033757;28;20045;-49
2023/06/09 08:18:13;;;;;;;6.57;5.97;;;23.90;53.30;;;;;;5033500;28;20125;-48
2023/06/09 08:20:42;;;;;;;6.20;5.70;;;24.00;53.00;;;;;;5022696;28;20073;-48
2023/06/09 08:23:08;;;;;;;7.05;6.43;;;24.00;53.00;;;;;;5033872;28;20069;-50
2023/06/09 08:25:37;;;;;;;5.97;5.35;;;24.10;52.80;;;;;;5020809;28;20034;-47
2023/06/09 08:28:10;;;;;;;7.18;6.50;;;24.10;52.40;;;;;;5033178;28;20050;-50
2023/06/09 08:30:37;;;;;;;6.15;5.55;;;24.20;52.30;;;;;;5033363;28;20045;-48
2023/06/09 08:33:06;;;;;;;6.78;6.22;;;24.20;52.60;;;;;;5028954;28;20547;-47
2023/06/09 08:35:36;;;;;;;6.75;6.05;;;24.30;52.70;;;;;;5027378;28;20560;-47
2023/06/09 08:38:04;;;;;;;6.13;5.63;;;24.40;52.70;;;;;;5033618;28;20572;-47
2023/06/09 08:40:31;;;;;;;6.88;6.28;;;24.50;52.70;;;;;;5031867;28;20068;-47
2023/06/09 08:43:04;;;;;;;5.97;5.45;;;24.50;52.20;;;;;;5027254;28;20038;-46
2023/06/09 08:45:34;;;;;;;6.43;5.85;;;24.60;51.70;;;;;;5033090;28;20069;-46
2023/06/09 08:48:05;;;;;;;6.40;5.80;;;24.60;51.30;;;;;;5032613;28;20112;-46
2023/06/09 08:50:41;;;;;;;7.03;6.32;;;24.70;51.50;;;;;;5030075;28;20048;-47
2023/06/09 08:53:09;;;;;;;5.78;5.28;;;24.70;51.40;;;;;;5009800;28;20116;-49
2023/06/09 08:55:37;;;;;;;6.75;5.40;;;24.80;51.60;;;;;;5023071;28;20049;-46
2023/06/09 08:58:04;;;;;;;6.32;5.72;;;24.90;51.80;;;;;;5033278;28;20116;-50
2023/06/09 09:00:33;;;;;;;5.88;5.38;;;24.90;50.90;;;;;;5033016;28;20121;-46
2023/06/09 09:03:04;;;;;;;5.38;4.88;;;25.00;51.20;;;;;;5030279;28;20513;-47
2023/06/09 09:05:35;;;;;;;5.38;4.97;;;25.10;50.80;;;;;;5014924;28;20042;-47
2023/06/09 09:08:02;;;;;;;7.07;5.63;;;25.10;50.70;;;;;;5025066;28;20722;-50
2023/06/09 09:10:31;;;;;;;5.93;5.43;;;25.10;50.30;;;;;;5025665;28;20042;-47
2023/06/09 09:13:01;;;;;;;5.95;5.43;;;25.20;49.60;;;;;;5026201;28;20452;-51
2023/06/09 09:15:28;;;;;;;6.78;5.25;;;25.30;49.10;;;;;;5032659;28;20052;-47
2023/06/09 09:17:56;;;;;;;6.82;6.20;;;25.40;49.20;;;;;;5032706;28;20383;-48
2023/06/09 09:20:33;;;;;;;6.38;5.75;;;25.40;49.80;;;;;;5025614;28;20096;-50
2023/06/09 09:23:02;;;;;;;5.18;4.78;;;25.50;49.60;;;;;;5024967;28;20041;-48
2023/06/09 09:25:30;;;;;;;7.97;5.20;;;25.50;50.00;;;;;;4996216;28;20044;-47
2023/06/09 09:28:08;;;;;;;6.05;5.55;;;25.60;49.50;;;;;;5028175;28;20379;-49
2023/06/09 09:30:54;;;;;;;6.15;5.57;;;25.70;50.00;;;;;;5032534;28;20060;-50
2023/06/09 09:33:29;;;;;;;6.28;5.78;;;25.70;49.00;;;;;;5020992;28;20502;-46
2023/06/09 09:36:03;;;;;;;6.20;5.70;;;25.80;49.10;;;;;;5025143;28;20121;-47
2023/06/09 09:38:30;;;;;;;5.65;5.15;;;25.80;48.90;;;;;;5032679;28;20037;-49
2023/06/09 09:41:00;;;;;;;5.80;5.30;;;25.90;48.80;;;;;;5030719;28;20084;-48
2023/06/09 09:43:32;;;;;;;6.20;5.60;;;25.90;48.40;;;;;;5020499;28;20121;-48
2023/06/09 09:46:07;;;;;;;7.68;5.22;;;26.00;48.50;;;;;;5023845;28;20053;-46
2023/06/09 09:48:37;;;;;;;6.40;5.68;;;26.10;48.80;;;;;;5032212;28;20048;-46
2023/06/09 09:51:06;;;;;;;13.05;5.68;;;26.10;48.40;;;;;;5029635;28;20052;-47
2023/06/09 09:53:35;;;;;;;5.50;5.07;;;26.20;48.70;;;;;;5019309;28;20054;-47
2023/06/09 09:56:03;;;;;;;5.50;4.88;;;26.20;48.30;;;;;;5024514;28;20393;-51
2023/06/09 09:58:36;;;;;;;6.93;5.75;;;26.30;48.30;;;;;;5031350;28;20446;-50
2023/06/09 10:01:05;;;;;;;5.72;5.22;;;26.40;48.00;;;;;;5032088;28;20116;-48
2023/06/09 10:03:37;;;;;;;5.63;5.10;;;26.50;48.00;;;;;;5022435;28;20049;-49
2023/06/09 10:06:12;;;;;;;5.53;5.00;;;26.50;47.40;;;;;;5027807;28;20092;-50
2023/06/09 10:08:42;;;;;;;6.07;5.57;;;26.60;47.30;;;;;;5031867;28;20498;-49
2023/06/09 10:11:11;;;;;;;;;;;26.60;47.20;;;;;;5032294;28;20033;-50
2023/06/09 10:13:39;;;;;;;5.65;5.18;;;26.70;47.70;;;;;;5020002;28;19921;-49
2023/06/09 10:16:07;;;;;;;6.55;5.80;;;26.70;47.40;;;;;;5012914;28;20041;-47
2023/06/09 10:18:37;;;;;;;5.30;4.90;;;26.70;46.60;;;;;;5030976;28;20095;-47
2023/06/09 10:21:10;;;;;;;5.38;5.00;;;26.80;47.10;;;;;;5027071;28;20100;-46
2023/06/09 10:23:39;;;;;;;5.65;5.15;;;26.90;46.90;;;;;;5021527;28;20044;-46
2023/06/09 10:26:09;;;;;;;5.60;5.20;;;26.90;46.70;;;;;;5024850;28;20044;-46
2023/06/09 10:28:37;;;;;;;6.57;5.13;;;27.00;47.00;;;;;;5028556;28;20402;-48
2023/06/09 10:31:07;;;;;;;6.65;5.43;;;27.10;47.00;;;;;;5031338;28;20097;-48
2023/06/09 10:33:38;;;;;;;5.75;5.28;;;27.10;46.20;;;;;;5020330;28;20045;-51
2023/06/09 10:36:10;;;;;;;5.80;5.25;;;27.20;46.10;;;;;;5027974;28;20398;-51
2023/06/09 10:38:43;;;;;;;5.22;4.82;;;27.20;45.80;;;;;;5031329;28;20087;-47
2023/06/09 10:41:28;;;;;;;5.35;4.90;;;27.30;46.00;;;;;;5022226;28;20096;-47
2023/06/09 10:44:20;;;;;;;5.43;5.03;;;27.40;45.00;;;;;;5024380;28;20033;-50
2023/06/09 10:46:52;;;;;;;5.97;5.47;;;27.50;45.60;;;;;;5030743;28;20409;-47
2023/06/09 10:49:25;;;;;;;5.18;4.65;;;27.50;44.70;;;;;;5019839;28;20405;-47
2023/06/09 10:52:21;;;;;;;5.38;4.93;;;27.60;45.00;;;;;;5022213;28;20473;-51
2023/06/09 10:55:15;;;;;;;5.18;4.68;;;27.70;45.00;;;;;;5005348;28;20108;-50
2023/06/09 10:57:44;;;;;;;5.28;4.88;;;27.80;44.60;;;;;;5028977;28;20043;-51
2023/06/09 11:00:14;;;;;;;5.63;4.80;;;27.80;44.40;;;;;;5031055;28;20033;-50
2023/06/09 11:02:48;;;;;;;5.75;5.20;;;27.90;43.80;;;;;;5028300;28;20116;-51
2023/06/09 11:05:19;;;;;;;5.03;4.53;;;28.00;43.70;;;;;;5021772;28;20037;-48
2023/06/09 11:08:02;;;;;;;4.78;4.28;;;28.00;43.50;;;;;;5030197;28;20418;-47
2023/06/09 11:10:29;;;;;;;5.10;4.70;;;28.10;43.00;;;;;;5030267;28;20064;-50
2023/06/09 11:13:03;;;;;;;4.55;4.15;;;28.20;43.70;;;;;;5018082;28;20038;-47
2023/06/09 11:16:01;;;;;;;5.15;4.75;;;28.20;43.80;;;;;;5027364;28;20033;-51
2023/06/09 11:18:31;;;;;;;4.95;4.50;;;28.30;43.50;;;;;;5013576;28;20034;-49
2023/06/09 11:21:15;;;;;;;5.13;4.72;;;28.50;43.30;;;;;;5025932;28;20466;-48
2023/06/09 11:24:00;;;;;;;4.82;4.53;;;28.50;42.60;;;;;;5023890;28;20449;-48
2023/06/09 11:26:29;;;;;;;4.72;4.32;;;28.60;42.90;;;;;;5018889;28;20042;-49
2023/06/09 11:28:56;;;;;;;4.85;4.38;;;28.70;42.40;;;;;;5030254;28;20041;-47
2023/06/09 11:31:23;;;;;;;5.10;4.70;;;28.70;41.80;;;;;;5030425;28;20039;-47
2023/06/09 11:33:57;;;;;;;5.20;4.80;;;28.80;41.60;;;;;;5025944;28;20457;-46
2023/06/09 11:36:27;;;;;;;5.30;4.70;;;28.90;41.80;;;;;;5022339;28;20049;-48
2023/06/09 11:39:03;;;;;;;4.80;4.43;;;28.90;41.90;;;;;;5030333;28;20059;-46
2023/06/09 11:41:32;;;;;;;5.20;4.53;;;29.00;41.00;;;;;;5030100;28;20038;-48
2023/06/09 11:44:00;;;;;;;4.32;4.03;;;29.10;41.70;;;;;;5024248;28;20041;-47
2023/06/09 11:46:33;;;;;;;4.63;4.32;;;29.10;41.40;;;;;;5025783;28;20038;-47
2023/06/09 11:49:08;;;;;;;5.03;4.63;;;29.20;41.50;;;;;;5030558;28;20045;-47
2023/06/09 11:51:58;;;;;;;5.10;4.70;;;29.40;42.00;;;;;;5019981;28;20049;-46
2023/06/09 11:54:43;;;;;;;4.25;3.95;;;29.50;40.90;;;;;;5026674;28;20045;-48
2023/06/09 11:57:13;;;;;;;4.50;4.20;;;29.50;40.30;;;;;;5025918;28;20068;-47
2023/06/09 11:59:43;;;;;;;;;;;29.60;40.40;;;;;;5029977;28;20548;-50
2023/06/09 12:02:13;;;;;;;4.57;4.18;;;29.70;41.60;;;;;;5029514;28;19927;-50
2023/06/09 12:04:42;;;;;;;4.78;4.18;;;29.80;40.00;;;;;;5019350;28;20490;-47
2023/06/09 12:07:17;;;;;;;4.00;3.70;;;29.80;39.30;;;;;;5030701;28;20042;-47
2023/06/09 12:09:55;;;;;;;5.07;3.97;;;29.90;40.10;;;;;;5029732;28;20072;-48
2023/06/09 12:12:27;;;;;;;4.70;4.30;;;30.00;39.60;;;;;;5026832;28;20091;-48
2023/06/09 12:14:53;;;;;;;4.28;3.88;;;30.10;38.80;;;;;;5016282;28;20045;-48
2023/06/09 12:17:23;;;;;;;4.28;3.90;;;30.10;38.60;;;;;;5012530;28;20046;-47
2023/06/09 12:19:54;;;;;;;4.18;3.78;;;30.20;38.80;;;;;;5029853;28;20071;-48
2023/06/09 12:22:36;;;;;;;4.30;3.97;;;30.20;38.70;;;;;;5025485;28;20037;-47
2023/06/09 12:25:27;;;;;;;3.90;3.63;;;30.40;38.60;;;;;;5019915;28;20041;-47
2023/06/09 12:28:15;;;;;;;4.15;3.83;;;30.50;38.70;;;;;;5033074;28;20117;-49
2023/06/09 12:30:47;;;;;;;4.78;3.65;;;30.50;38.20;;;;;;5033115;28;20469;-51
2023/06/09 12:33:19;;;;;;;4.40;4.10;;;30.60;38.70;;;;;;5029725;28;20052;-49
2023/06/09 12:35:49;;;;;;;3.88;3.65;;;30.70;39.00;;;;;;5023498;28;20045;-51
2023/06/09 12:38:26;;;;;;;7.05;4.05;;;30.90;38.40;;;;;;5033823;28;20048;-50
2023/06/09 12:41:03;;;;;;;4.63;4.00;;;30.90;38.40;;;;;;5032847;28;20476;-48
2023/06/09 12:43:50;;;;;;;3.80;3.17;;;31.10;37.90;;;;;;5025420;28;20048;-48
2023/06/09 12:46:41;;;;;;;4.05;3.65;;;31.20;37.70;;;;;;5033321;28;20040;-49
2023/06/09 12:49:09;;;;;;;4.05;3.65;;;31.30;37.60;;;;;;5033291;28;20069;-49
2023/06/09 12:51:40;;;;;;;3.95;3.65;;;31.40;37.90;;;;;;5030833;28;20061;-46
2023/06/09 12:54:15;;;;;;;3.53;3.25;;;31.50;37.20;;;;;;5023294;28;20450;-51
2023/06/09 12:56:43;;;;;;;4.03;3.50;;;31.60;36.90;;;;;;5031987;28;20038;-49
2023/06/09 12:59:11;;;;;;;4.00;3.70;;;31.70;37.40;;;;;;5033301;28;20065;-48
2023/06/09 13:01:39;;;;;;;3.70;3.40;;;31.90;36.90;;;;;;5031956;28;20120;-48
2023/06/09 13:04:10;;;;;;;4.15;3.85;;;32.00;36.90;;;;;;5020877;28;20402;-51
2023/06/09 13:06:43;;;;;;;3.83;3.53;;;32.10;36.20;;;;;;5030315;28;20040;-51
2023/06/09 13:09:10;;;;;;;4.18;3.88;;;32.20;35.50;;;;;;5032811;28;20045;-48